createdAt,value
2024-05-09T00:01:29.865Z,6.00
2024-05-09T00:06:32.838Z,4.40
2024-05-09T00:11:35.880Z,4.50
2024-05-09T00:16:38.694Z,3.80
2024-05-09T00:21:45.217Z,4.60
2024-05-09T00:26:48.879Z,4.00
2024-05-09T00:31:51.733Z,3.80
2024-05-09T00:36:55.247Z,4.30
2024-05-09T00:41:59.683Z,6.20
2024-05-09T00:47:03.514Z,8.00
2024-05-09T00:52:07.579Z,7.10
2024-05-09T00:57:10.572Z,6.60
2024-05-09T01:02:14.109Z,4.40
2024-05-09T01:07:17.119Z,4.10
2024-05-09T01:12:20.193Z,5.20
2024-05-09T01:17:23.303Z,6.40
2024-05-09T01:22:28.813Z,8.50
2024-05-09T01:27:32.293Z,7.40
2024-05-09T01:32:35.151Z,8.10
2024-05-09T01:37:37.961Z,6.90
2024-05-09T01:42:40.902Z,3.50
2024-05-09T01:47:43.884Z,9.50
2024-05-09T01:52:46.961Z,7.90
2024-05-09T01:57:49.897Z,5.00
2024-05-09T02:02:52.828Z,5.30
2024-05-09T02:07:56.151Z,4.50
2024-05-09T02:12:59.087Z,4.40
2024-05-09T02:18:02.236Z,3.90
2024-05-09T02:23:06.768Z,4.80
2024-05-09T02:33:14.430Z,4.50
2024-05-09T02:43:20.996Z,7.70
2024-05-09T02:48:24.189Z,4.10
2024-05-09T02:53:27.085Z,6.10
2024-05-09T02:58:29.983Z,6.30
2024-05-09T03:03:33.981Z,7.30
2024-05-09T03:08:37.134Z,4.30
2024-05-09T03:13:41.975Z,3.90
2024-05-09T03:18:45.447Z,4.70
2024-05-09T03:23:51.834Z,14.00
2024-05-09T03:28:55.366Z,5.70
2024-05-09T03:33:58.662Z,4.00
2024-05-09T03:39:01.546Z,4.50
2024-05-09T03:44:08.250Z,6.70
2024-05-09T03:49:11.566Z,8.10
2024-05-09T03:54:14.705Z,5.50
2024-05-09T03:59:17.591Z,5.10
2024-05-09T04:04:21.379Z,7.00
2024-05-09T04:09:24.403Z,5.40
2024-05-09T04:14:27.526Z,7.40
2024-05-09T04:19:30.603Z,6.10
2024-05-09T04:24:33.415Z,7.70
2024-05-09T04:29:37.678Z,3.90
2024-05-09T04:34:40.549Z,6.80
2024-05-09T04:39:43.231Z,4.80
2024-05-09T04:44:46.112Z,4.40
2024-05-09T04:49:48.986Z,3.50
2024-05-09T05:00:53.128Z,5.20
2024-05-09T05:05:56.080Z,4.00
2024-05-09T05:10:59.044Z,7.40
2024-05-09T05:16:02.660Z,7.10
2024-05-09T05:21:05.909Z,5.00
2024-05-09T05:26:08.783Z,8.00
2024-05-09T05:31:12.522Z,5.00
2024-05-09T05:36:16.352Z,6.00
2024-05-09T05:41:19.616Z,6.20
2024-05-09T05:46:22.512Z,5.70
2024-05-09T05:51:50.196Z,7.70
2024-05-09T05:56:52.891Z,9.90
2024-05-09T06:01:55.996Z,10.60
2024-05-09T06:07:01.139Z,6.20
2024-05-09T06:12:07.150Z,4.70
2024-05-09T06:17:10.347Z,6.30
2024-05-09T06:22:13.441Z,7.60
2024-05-09T06:27:18.871Z,5.90
2024-05-09T06:32:23.131Z,5.40
2024-05-09T06:37:43.500Z,5.40
2024-05-09T06:43:10.560Z,7.30
2024-05-09T06:48:22.712Z,5.20
2024-05-09T06:53:29.721Z,10.30
2024-05-09T06:58:39.363Z,5.00
2024-05-09T07:03:50.160Z,7.10
2024-05-09T07:09:00.310Z,8.40
2024-05-09T07:14:03.501Z,4.40
2024-05-09T07:19:07.453Z,6.80
2024-05-09T07:24:13.505Z,8.70
2024-05-09T07:29:18.796Z,8.60
2024-05-09T07:34:21.946Z,3.30
2024-05-09T07:39:25.411Z,6.70
2024-05-09T07:44:33.116Z,6.80
2024-05-09T07:55:51.617Z,12.00
2024-05-09T08:00:31.807Z,5.00
2024-05-09T08:05:38.454Z,6.10
2024-05-09T08:10:45.878Z,5.10
2024-05-09T08:15:52.003Z,11.50
2024-05-09T08:21:00.325Z,5.60
2024-05-09T08:26:16.032Z,5.10
2024-05-09T08:31:26.962Z,5.90
2024-05-09T08:36:29.993Z,5.20
2024-05-09T08:41:35.006Z,9.90
2024-05-09T08:46:38.444Z,3.80
2024-05-09T08:51:41.752Z,5.30
2024-05-09T08:56:48.358Z,4.60
2024-05-09T09:01:51.773Z,6.70
2024-05-09T09:06:58.132Z,7.80
2024-05-09T09:12:01.516Z,6.10
2024-05-09T09:17:15.448Z,5.60
2024-05-09T09:22:19.860Z,4.60
2024-05-09T09:27:22.812Z,4.30
2024-05-09T09:32:29.401Z,3.50
2024-05-09T09:37:32.752Z,3.50
2024-05-09T09:42:38.029Z,6.40
2024-05-09T09:47:46.739Z,3.40
2024-05-09T09:52:52.141Z,5.80
2024-05-09T09:57:56.656Z,6.60
2024-05-09T10:02:59.652Z,4.30
2024-05-09T10:08:08.618Z,3.20
2024-05-09T10:13:11.351Z,5.50
2024-05-09T10:18:15.975Z,4.30
2024-05-09T10:23:36.355Z,4.90
2024-05-09T10:28:45.061Z,2.80
2024-05-09T10:33:51.018Z,5.60
2024-05-09T10:38:55.615Z,7.20
2024-05-09T10:43:58.373Z,7.10
2024-05-09T10:54:08.999Z,2.40
2024-05-09T10:59:13.099Z,4.30
2024-05-09T11:04:16.967Z,4.30
2024-05-09T11:09:20.443Z,4.20
2024-05-09T11:14:23.705Z,3.20
2024-05-09T11:19:34.196Z,6.50
2024-05-09T11:24:40.657Z,4.50
2024-05-09T11:29:45.755Z,5.00
2024-05-09T11:34:48.492Z,4.50
2024-05-09T11:39:51.569Z,2.70
2024-05-09T11:44:54.217Z,3.60
2024-05-09T11:54:59.788Z,9.00
2024-05-09T12:00:04.358Z,3.10
2024-05-09T12:05:08.486Z,4.90
2024-05-09T12:10:16.788Z,6.10
2024-05-09T12:15:24.741Z,9.80
2024-05-09T12:20:35.298Z,3.80
2024-05-09T12:25:42.999Z,3.90
2024-05-09T12:30:51.754Z,5.20
2024-05-09T12:35:59.824Z,5.20
2024-05-09T12:41:02.835Z,4.30
2024-05-09T12:53:27.978Z,6.50
2024-05-09T12:58:31.697Z,7.70
2024-05-09T13:03:34.797Z,4.60
2024-05-09T13:08:38.120Z,4.40
2024-05-09T13:13:41.283Z,4.10
2024-05-09T13:18:44.590Z,6.00
2024-05-09T13:23:48.256Z,7.10
2024-05-09T13:28:50.924Z,6.00
2024-05-09T13:38:57.374Z,4.90
2024-05-09T13:44:01.557Z,5.00
2024-05-09T13:49:05.601Z,5.70
2024-05-09T13:54:09.192Z,4.00
2024-05-09T13:59:12.749Z,5.10
2024-05-09T14:09:18.587Z,4.60
2024-05-09T14:14:21.378Z,4.10
2024-05-09T14:19:26.169Z,5.00
2024-05-09T14:24:29.110Z,9.40
2024-05-09T14:29:33.718Z,8.20
2024-05-09T14:34:36.411Z,6.40
2024-05-09T14:39:39.159Z,5.60
2024-05-09T14:44:41.808Z,8.30
2024-05-09T14:49:44.854Z,8.20
2024-05-09T14:54:59.797Z,5.20
2024-05-09T15:05:11.777Z,6.20
2024-05-09T15:10:26.247Z,6.60
2024-05-09T15:15:34.451Z,5.10
2024-05-09T15:20:37.899Z,4.30
2024-05-09T15:25:41.195Z,4.50
2024-05-09T15:30:46.237Z,8.80
2024-05-09T15:35:52.077Z,7.80
2024-05-09T15:40:55.062Z,3.20
2024-05-09T15:45:57.911Z,6.00
2024-05-09T15:51:00.759Z,9.40
2024-05-09T15:56:03.867Z,6.10
2024-05-09T16:01:07.248Z,6.50
2024-05-09T16:06:10.185Z,5.80
2024-05-09T16:11:14.956Z,9.30
2024-05-09T16:16:18.223Z,5.40
2024-05-09T16:21:20.972Z,4.00
2024-05-09T16:26:23.867Z,6.80
2024-05-09T16:31:27.004Z,5.20
2024-05-09T16:36:33.237Z,6.20
2024-05-09T16:41:36.702Z,4.60
2024-05-09T16:46:41.118Z,15.80
2024-05-09T16:51:43.764Z,15.80
2024-05-09T16:56:46.600Z,4.90
2024-05-09T17:01:49.582Z,6.60
2024-05-09T17:06:53.905Z,7.10
2024-05-09T17:11:56.638Z,4.30
2024-05-09T17:16:59.624Z,5.30
2024-05-09T17:22:02.517Z,8.00
2024-05-09T17:27:06.785Z,8.30
2024-05-09T17:32:09.809Z,9.20
2024-05-09T17:37:12.774Z,7.80
2024-05-09T17:42:15.768Z,6.70
2024-05-09T17:47:18.843Z,8.00
2024-05-09T17:52:21.708Z,9.30
2024-05-09T17:57:27.217Z,8.70
2024-05-09T18:02:30.084Z,9.90
2024-05-09T18:07:36.131Z,13.10
2024-05-09T18:12:39.029Z,12.30
2024-05-09T18:17:42.662Z,13.00
2024-05-09T18:22:45.355Z,11.80
2024-05-09T18:27:49.071Z,12.00
2024-05-09T18:32:52.428Z,9.10
2024-05-09T18:37:58.770Z,9.30
2024-05-09T18:43:01.901Z,12.60
2024-05-09T18:48:07.152Z,16.60
2024-05-09T18:53:13.148Z,13.30
2024-05-09T18:58:20.074Z,12.40
2024-05-09T19:03:24.756Z,20.80
2024-05-09T19:08:28.792Z,16.70
2024-05-09T19:13:32.004Z,28.60
2024-05-09T19:18:45.854Z,28.50
2024-05-09T19:23:52.265Z,29.80
2024-05-09T19:28:55.652Z,30.50
2024-05-09T19:33:58.627Z,32.30
2024-05-09T19:39:01.424Z,22.30
2024-05-09T19:44:04.380Z,18.80
2024-05-09T19:49:08.017Z,18.70
2024-05-09T19:54:11.001Z,12.80
2024-05-09T19:59:14.532Z,31.50
2024-05-09T20:04:17.405Z,30.70
2024-05-09T20:09:20.179Z,28.80
2024-05-09T20:14:23.990Z,21.80
2024-05-09T20:24:29.515Z,11.00
2024-05-09T20:29:32.091Z,14.10
2024-05-09T20:34:35.670Z,16.20
2024-05-09T20:39:38.532Z,19.90
2024-05-09T20:44:41.294Z,25.70
2024-05-09T20:49:46.152Z,19.00
2024-05-09T20:54:48.958Z,24.20
2024-05-09T20:59:52.233Z,24.00
2024-05-09T21:04:54.996Z,20.00
2024-05-09T21:09:57.833Z,19.60
2024-05-09T21:15:00.482Z,17.00
2024-05-09T21:20:07.320Z,23.00
2024-05-09T21:25:12.893Z,34.20
2024-05-09T21:30:22.425Z,32.00
2024-05-09T21:35:33.541Z,38.70
2024-05-09T21:40:37.960Z,36.00
2024-05-09T21:45:42.298Z,33.40
2024-05-09T21:55:48.651Z,39.60
2024-05-09T22:00:51.418Z,22.90
2024-05-09T22:05:54.502Z,15.40
2024-05-09T22:10:57.392Z,9.70
2024-05-09T22:16:02.309Z,11.90
2024-05-09T22:21:05.466Z,11.40
2024-05-09T22:26:08.206Z,11.50
2024-05-09T22:31:10.939Z,13.10
2024-05-09T22:36:13.720Z,11.40
2024-05-09T22:41:16.564Z,14.60
2024-05-09T22:46:19.388Z,16.90
2024-05-09T22:51:22.432Z,12.30
2024-05-09T22:56:29.248Z,22.40
2024-05-09T23:01:32.769Z,17.50
2024-05-09T23:11:42.125Z,17.50
2024-05-09T23:16:45.084Z,15.40
2024-05-09T23:21:47.956Z,21.90
2024-05-09T23:26:51.617Z,25.60
2024-05-09T23:31:54.459Z,32.90
2024-05-09T23:36:57.216Z,28.30
2024-05-09T23:42:00.864Z,23.40
2024-05-09T23:47:03.892Z,21.30
2024-05-09T23:52:07.102Z,20.00
2024-05-09T23:57:09.836Z,22.10
